createdAt,value
2019-02-19T00:00:35.242Z,29.67
2019-02-19T00:03:04.620Z,30.33
2019-02-19T00:05:33.550Z,29.00
2019-02-19T00:08:02.403Z,27.97
2019-02-19T00:10:31.200Z,29.40
2019-02-19T00:13:00.174Z,30.23
2019-02-19T00:15:29.171Z,31.43
2019-02-19T00:17:58.207Z,32.47
2019-02-19T00:20:27.038Z,27.53
2019-02-19T00:22:55.913Z,30.73
2019-02-19T00:25:24.700Z,29.17
2019-02-19T00:27:53.521Z,25.83
2019-02-19T00:30:22.429Z,29.43
2019-02-19T00:32:51.209Z,30.33
2019-02-19T00:35:20.162Z,32.37
2019-02-19T00:37:48.965Z,27.40
2019-02-19T00:40:17.875Z,29.80
2019-02-19T00:42:46.664Z,27.17
2019-02-19T00:45:16.974Z,27.37
2019-02-19T00:47:46.056Z,32.60
2019-02-19T00:50:14.914Z,29.70
2019-02-19T00:52:43.784Z,27.23
2019-02-19T00:55:12.635Z,28.57
2019-02-19T00:57:41.451Z,30.30
2019-02-19T01:00:11.460Z,30.17
2019-02-19T01:02:40.359Z,28.97
2019-02-19T01:05:09.349Z,25.27
2019-02-19T01:07:38.243Z,28.50
2019-02-19T01:10:07.515Z,29.00
2019-02-19T01:12:36.363Z,28.27
2019-02-19T01:15:06.521Z,24.50
2019-02-19T01:17:35.389Z,27.50
2019-02-19T01:20:04.922Z,26.73
2019-02-19T01:22:33.823Z,30.40
2019-02-19T01:25:02.769Z,24.30
2019-02-19T01:27:31.657Z,33.33
2019-02-19T01:30:00.597Z,30.00
2019-02-19T01:32:29.545Z,27.63
2019-02-19T01:34:58.385Z,29.23
2019-02-19T01:37:29.249Z,25.77
2019-02-19T01:39:58.113Z,22.27
2019-02-19T01:42:26.919Z,31.00
2019-02-19T01:44:55.721Z,25.83
2019-02-19T01:47:25.070Z,28.57
2019-02-19T01:49:54.061Z,25.40
2019-02-19T01:52:22.939Z,24.20
2019-02-19T01:54:51.945Z,25.57
2019-02-19T01:57:20.981Z,26.80
2019-02-19T01:59:50.061Z,28.83
2019-02-19T02:02:19.026Z,35.30
2019-02-19T02:04:47.857Z,29.03
2019-02-19T02:07:16.796Z,25.80
2019-02-19T02:09:47.015Z,25.40
2019-02-19T02:12:15.981Z,24.30
2019-02-19T02:14:44.943Z,29.10
2019-02-19T02:17:13.751Z,29.57
2019-02-19T02:19:42.583Z,24.93
2019-02-19T02:22:11.437Z,24.07
2019-02-19T02:24:40.338Z,28.47
2019-02-19T02:27:09.227Z,30.13
2019-02-19T02:29:38.145Z,30.30
2019-02-19T02:32:07.056Z,22.83
2019-02-19T02:34:35.932Z,25.90
2019-02-19T02:37:04.782Z,31.50
2019-02-19T02:39:33.730Z,27.53
2019-02-19T02:42:02.683Z,25.93
2019-02-19T02:44:31.750Z,26.70
2019-02-19T02:47:00.615Z,26.33
2019-02-19T02:49:30.668Z,29.27
2019-02-19T02:51:59.730Z,26.93
2019-02-19T02:54:28.574Z,27.20
2019-02-19T02:56:57.480Z,30.37
2019-02-19T02:59:26.371Z,32.33
2019-02-19T03:01:55.278Z,37.63
2019-02-19T03:04:24.164Z,29.40
2019-02-19T03:06:59.251Z,24.70
2019-02-19T03:09:28.284Z,32.33
2019-02-19T03:11:57.076Z,27.23
2019-02-19T03:14:26.003Z,26.90
2019-02-19T03:16:54.795Z,24.27
2019-02-19T03:19:23.631Z,27.63
2019-02-19T03:21:52.428Z,32.57
2019-02-19T03:24:21.232Z,28.83
2019-02-19T03:26:50.156Z,27.30
2019-02-19T03:29:19.115Z,28.20
2019-02-19T03:31:47.946Z,25.87
2019-02-19T03:34:16.830Z,27.80
2019-02-19T03:36:45.640Z,30.07
2019-02-19T03:39:14.498Z,26.20
2019-02-19T03:41:43.334Z,27.57
2019-02-19T03:44:12.183Z,26.47
2019-02-19T03:46:41.068Z,31.43
2019-02-19T03:49:09.911Z,24.40
2019-02-19T03:51:38.758Z,29.33
2019-02-19T03:54:07.651Z,26.77
2019-02-19T03:56:36.646Z,34.53
2019-02-19T03:59:05.560Z,28.07
2019-02-19T04:01:34.407Z,38.77
2019-02-19T04:04:03.302Z,27.37
2019-02-19T04:06:32.486Z,36.03
2019-02-19T04:09:01.307Z,31.90
2019-02-19T04:11:30.260Z,34.70
2019-02-19T04:13:59.290Z,31.77
2019-02-19T04:16:28.118Z,28.30
2019-02-19T04:18:57.204Z,27.47
2019-02-19T04:21:26.126Z,30.77
2019-02-19T04:23:54.944Z,27.87
2019-02-19T04:26:23.866Z,30.63
2019-02-19T04:28:52.800Z,30.20
2019-02-19T04:31:21.812Z,27.93
2019-02-19T04:33:50.687Z,30.60
2019-02-19T04:36:19.650Z,25.50
2019-02-19T04:38:48.542Z,37.77
2019-02-19T04:41:17.521Z,30.90
2019-02-19T04:43:46.603Z,25.60
2019-02-19T04:46:15.471Z,29.33
2019-02-19T04:48:44.342Z,26.20
2019-02-19T04:51:13.168Z,30.33
2019-02-19T04:53:41.984Z,27.70
2019-02-19T04:56:10.952Z,28.53
2019-02-19T04:58:39.824Z,26.93
2019-02-19T05:01:08.713Z,24.50
2019-02-19T05:03:37.619Z,24.70
2019-02-19T05:06:06.490Z,24.50
2019-02-19T05:08:35.554Z,24.80
2019-02-19T05:11:04.519Z,25.30
2019-02-19T05:13:33.332Z,24.60
2019-02-19T05:16:02.147Z,26.80
2019-02-19T05:18:31.002Z,26.83
2019-02-19T05:20:59.809Z,27.27
2019-02-19T05:23:28.611Z,24.67
2019-02-19T05:25:57.489Z,23.50
2019-02-19T05:28:26.426Z,28.63
2019-02-19T05:30:55.269Z,26.03
2019-02-19T05:33:24.202Z,35.17
2019-02-19T05:35:53.047Z,26.23
2019-02-19T05:38:21.897Z,29.10
2019-02-19T05:40:50.733Z,26.80
2019-02-19T05:43:19.719Z,26.70
2019-02-19T05:45:48.675Z,27.90
2019-02-19T05:48:17.465Z,32.50
2019-02-19T05:50:46.741Z,23.40
2019-02-19T05:53:15.664Z,25.33
2019-02-19T05:55:44.583Z,28.67
2019-02-19T05:58:13.502Z,25.20
2019-02-19T06:00:42.392Z,38.33
2019-02-19T06:03:11.307Z,24.20
2019-02-19T06:05:40.227Z,26.83
2019-02-19T06:08:09.104Z,24.33
2019-02-19T06:10:38.023Z,26.30
2019-02-19T06:13:06.915Z,22.90
2019-02-19T06:15:35.758Z,25.20
2019-02-19T06:18:05.641Z,25.13
2019-02-19T06:20:34.474Z,24.97
2019-02-19T06:23:03.457Z,25.20
2019-02-19T06:25:32.330Z,25.17
2019-02-19T06:28:01.183Z,25.23
2019-02-19T06:30:30.109Z,23.67
2019-02-19T06:32:59.938Z,22.17
2019-02-19T06:35:28.933Z,25.77
2019-02-19T06:37:57.761Z,24.53
2019-02-19T06:40:28.329Z,27.23
2019-02-19T06:43:00.208Z,20.47
2019-02-19T06:45:29.152Z,26.57
2019-02-19T06:47:58.293Z,23.70
2019-02-19T06:50:27.235Z,27.80
2019-02-19T06:52:56.172Z,26.03
2019-02-19T06:55:25.107Z,23.40
2019-02-19T06:57:54.061Z,23.60
2019-02-19T07:00:23.049Z,22.70
2019-02-19T07:02:57.373Z,25.07
2019-02-19T07:05:26.381Z,25.90
2019-02-19T07:07:55.337Z,25.53
2019-02-19T07:10:24.225Z,22.20
2019-02-19T07:12:53.775Z,26.17
2019-02-19T07:15:22.807Z,30.70
2019-02-19T07:17:51.847Z,24.63
2019-02-19T07:20:20.781Z,24.00
2019-02-19T07:22:49.625Z,22.67
2019-02-19T07:25:18.531Z,19.53
2019-02-19T07:27:51.494Z,20.27
2019-02-19T07:30:20.363Z,24.40
2019-02-19T07:32:49.205Z,20.10
2019-02-19T07:35:18.168Z,22.37
2019-02-19T07:37:47.109Z,20.07
2019-02-19T07:40:17.426Z,21.20
2019-02-19T07:42:46.505Z,24.77
2019-02-19T07:45:15.515Z,20.57
2019-02-19T07:47:44.444Z,20.87
2019-02-19T07:50:13.756Z,22.23
2019-02-19T07:52:42.753Z,18.70
2019-02-19T07:55:11.955Z,23.87
2019-02-19T07:57:41.054Z,21.83
2019-02-19T08:00:11.570Z,24.30
2019-02-19T08:02:42.730Z,23.50
2019-02-19T08:05:11.790Z,21.67
2019-02-19T08:07:40.714Z,19.77
2019-02-19T08:10:09.738Z,23.20
2019-02-19T08:12:38.753Z,18.13
2019-02-19T08:15:08.033Z,21.70
2019-02-19T08:17:36.890Z,16.43
2019-02-19T08:20:13.443Z,21.53
2019-02-19T08:22:36.655Z,16.63
2019-02-19T08:25:05.998Z,25.23
2019-02-19T08:27:34.954Z,21.30
2019-02-19T08:30:04.590Z,21.33
2019-02-19T08:32:33.446Z,15.57
2019-02-19T08:35:02.428Z,18.50
2019-02-19T08:37:31.331Z,16.47
2019-02-19T08:40:06.896Z,21.40
2019-02-19T08:42:35.714Z,25.83
2019-02-19T08:45:05.018Z,20.73
2019-02-19T08:47:42.281Z,18.13
2019-02-19T08:50:05.906Z,20.00
2019-02-19T08:52:34.818Z,21.10
2019-02-19T08:55:03.806Z,25.30
2019-02-19T08:57:32.629Z,18.20
2019-02-19T09:00:01.549Z,19.80
2019-02-19T09:02:30.521Z,23.83
2019-02-19T09:04:59.508Z,23.43
2019-02-19T09:07:28.330Z,24.03
2019-02-19T09:09:57.122Z,25.53
2019-02-19T09:12:25.964Z,24.37
2019-02-19T09:14:54.765Z,20.50
2019-02-19T09:17:23.618Z,23.70
2019-02-19T09:19:52.575Z,25.10
2019-02-19T09:22:21.463Z,27.00
2019-02-19T09:24:50.287Z,26.70
2019-02-19T09:27:19.130Z,30.13
2019-02-19T09:29:48.006Z,29.37
2019-02-19T09:32:16.782Z,26.40
2019-02-19T09:34:45.726Z,28.17
2019-02-19T09:37:15.642Z,26.00
2019-02-19T09:39:44.451Z,26.37
2019-02-19T09:42:13.366Z,26.83
2019-02-19T09:44:42.307Z,26.47
2019-02-19T09:47:11.319Z,30.67
2019-02-19T09:49:40.124Z,28.03
2019-02-19T09:52:09.154Z,26.80
2019-02-19T09:54:38.102Z,26.50
2019-02-19T09:57:08.095Z,32.00
2019-02-19T09:59:37.030Z,27.60
2019-02-19T10:02:05.882Z,28.47
2019-02-19T10:04:34.827Z,29.50
2019-02-19T10:07:03.742Z,30.17
2019-02-19T10:09:32.703Z,29.53
2019-02-19T10:12:01.534Z,34.70
2019-02-19T10:14:30.315Z,32.50
2019-02-19T10:16:59.361Z,38.90
2019-02-19T10:19:28.327Z,33.53
2019-02-19T10:21:57.157Z,30.93
2019-02-19T10:24:26.077Z,31.90
2019-02-19T10:26:55.025Z,28.33
2019-02-19T10:29:23.924Z,34.33
2019-02-19T10:31:52.748Z,31.50
2019-02-19T10:34:21.545Z,34.33
2019-02-19T10:36:50.471Z,33.73
2019-02-19T10:39:19.410Z,35.90
2019-02-19T10:41:48.212Z,26.83
2019-02-19T10:44:17.083Z,32.40
2019-02-19T10:46:46.007Z,35.27
2019-02-19T10:49:15.030Z,33.93
2019-02-19T10:51:43.877Z,34.73
2019-02-19T10:54:12.701Z,32.73
2019-02-19T10:56:41.657Z,36.27
2019-02-19T10:59:10.568Z,34.40
2019-02-19T11:01:54.543Z,32.40
2019-02-19T11:18:42.333Z,32.57
2019-02-19T11:21:19.307Z,32.17
2019-02-19T11:23:41.847Z,29.80
2019-02-19T11:26:10.715Z,32.17
2019-02-19T11:28:41.052Z,40.20
2019-02-19T11:31:10.365Z,27.53
2019-02-19T11:33:45.660Z,28.87
2019-02-19T11:36:14.676Z,25.27
2019-02-19T11:38:43.911Z,25.37
2019-02-19T11:41:14.305Z,28.53
2019-02-19T11:43:43.361Z,28.00
2019-02-19T11:46:12.423Z,26.00
2019-02-19T11:48:42.037Z,26.33
2019-02-19T11:51:11.357Z,29.00
2019-02-19T11:53:40.529Z,27.47
2019-02-19T11:56:09.699Z,25.40
2019-02-19T11:58:38.488Z,29.37
2019-02-19T12:01:07.530Z,25.80
2019-02-19T12:03:43.560Z,33.97
2019-02-19T12:06:14.229Z,28.60
2019-02-19T12:08:43.211Z,27.67
2019-02-19T12:11:12.077Z,21.57
2019-02-19T12:13:40.976Z,23.97
2019-02-19T12:16:09.835Z,29.70
2019-02-19T12:18:45.974Z,26.90
2019-02-19T12:21:10.665Z,24.53
2019-02-19T12:23:39.609Z,29.60
2019-02-19T12:26:08.447Z,25.60
2019-02-19T12:28:37.296Z,21.90
2019-02-19T12:31:06.243Z,27.70
2019-02-19T12:33:35.112Z,22.93
2019-02-19T12:36:04.074Z,26.63
2019-02-19T12:38:32.960Z,31.67
2019-02-19T12:41:02.175Z,27.17
2019-02-19T12:43:31.111Z,25.17
2019-02-19T12:45:59.982Z,25.73
2019-02-19T12:48:28.841Z,23.03
2019-02-19T12:50:57.849Z,32.53
2019-02-19T12:53:26.775Z,28.57
2019-02-19T12:55:55.683Z,25.07
2019-02-19T12:58:24.576Z,26.10
2019-02-19T13:00:53.368Z,26.03
2019-02-19T13:03:22.348Z,27.67
2019-02-19T13:05:51.246Z,30.00
2019-02-19T13:08:20.214Z,26.90
2019-02-19T13:10:49.224Z,29.97
2019-02-19T13:13:18.024Z,25.13
2019-02-19T13:15:46.902Z,27.30
2019-02-19T13:18:15.798Z,29.57
2019-02-19T13:20:44.596Z,29.70
2019-02-19T13:23:13.450Z,27.90
2019-02-19T13:25:42.698Z,26.87
2019-02-19T13:28:11.649Z,27.67
2019-02-19T13:30:40.621Z,26.70
2019-02-19T13:33:09.686Z,24.80
2019-02-19T13:35:38.630Z,26.23
2019-02-19T13:38:14.022Z,26.70
2019-02-19T13:40:43.148Z,22.57
2019-02-19T13:43:12.119Z,23.50
2019-02-19T13:45:40.980Z,23.73
2019-02-19T13:48:09.948Z,23.67
2019-02-19T13:50:39.103Z,17.60
2019-02-19T13:53:30.029Z,27.00
2019-02-19T13:55:59.939Z,17.70
2019-02-19T13:58:28.894Z,23.57
2019-02-19T14:00:57.756Z,17.30
2019-02-19T14:03:26.936Z,18.70
2019-02-19T14:05:55.809Z,21.00
2019-02-19T14:08:24.887Z,21.63
2019-02-19T14:10:53.714Z,18.83
2019-02-19T14:13:22.581Z,32.43
2019-02-19T14:16:01.020Z,18.73
2019-02-19T14:18:47.529Z,15.13
2019-02-19T14:21:35.430Z,15.33
2019-02-19T14:24:22.196Z,24.33
2019-02-19T14:27:08.905Z,15.47
2019-02-19T14:30:06.108Z,15.10
2019-02-19T14:32:47.113Z,18.70
2019-02-19T14:35:37.963Z,16.60
2019-02-19T14:38:35.208Z,16.27
2019-02-19T14:41:20.949Z,16.00
2019-02-19T14:44:01.219Z,19.70
2019-02-19T14:46:49.224Z,15.30
2019-02-19T14:49:37.631Z,18.07
2019-02-19T14:52:24.077Z,18.43
2019-02-19T14:55:07.733Z,22.57
2019-02-19T14:57:54.213Z,22.90
2019-02-19T15:00:42.611Z,17.00
2019-02-19T15:03:20.633Z,16.87
2019-02-19T15:06:07.453Z,18.50
2019-02-19T15:08:49.856Z,18.33
2019-02-19T15:11:47.580Z,22.07
2019-02-19T15:14:26.122Z,18.17
2019-02-19T15:17:12.577Z,20.73
2019-02-19T15:19:56.599Z,15.20
2019-02-19T15:22:44.621Z,15.80
2019-02-19T15:25:30.249Z,14.00
2019-02-19T15:28:24.417Z,16.23
2019-02-19T15:31:03.970Z,17.53
2019-02-19T15:33:54.740Z,23.77
2019-02-19T15:36:35.717Z,15.10
2019-02-19T15:39:12.188Z,18.13
2019-02-19T15:41:58.577Z,13.17
2019-02-19T15:44:45.772Z,11.67
2019-02-19T15:47:38.576Z,18.33
2019-02-19T15:50:26.783Z,11.90
2019-02-19T15:53:06.314Z,10.70
2019-02-19T15:55:57.277Z,12.27
2019-02-19T15:58:42.111Z,14.40
2019-02-19T16:01:42.061Z,12.63
2019-02-19T16:04:25.370Z,14.43
2019-02-19T16:07:10.957Z,16.10
2019-02-19T16:09:57.827Z,9.70
2019-02-19T16:12:45.835Z,10.37
2019-02-19T16:15:46.176Z,10.77
2019-02-19T16:18:27.906Z,10.47
2019-02-19T16:21:06.279Z,11.67
2019-02-19T16:23:41.860Z,10.83
2019-02-19T16:26:34.227Z,13.00
2019-02-19T16:29:26.315Z,11.23
2019-02-19T16:32:18.215Z,15.83
2019-02-19T16:35:06.247Z,13.70
2019-02-19T16:37:53.607Z,22.47
2019-02-19T16:40:36.162Z,13.83
2019-02-19T16:43:29.161Z,29.33
2019-02-19T16:46:17.235Z,18.03
2019-02-19T16:48:56.969Z,24.80
2019-02-19T16:51:38.055Z,13.63
2019-02-19T16:54:24.201Z,9.67
2019-02-19T16:57:15.277Z,9.77
2019-02-19T17:00:09.030Z,13.73
2019-02-19T17:02:54.424Z,8.20
2019-02-19T17:05:44.507Z,12.50
2019-02-19T17:08:28.414Z,14.20
2019-02-19T17:11:05.909Z,14.57
2019-02-19T17:13:47.326Z,5.77
2019-02-19T17:16:47.260Z,12.83
2019-02-19T17:19:38.037Z,11.73
2019-02-19T17:22:24.652Z,10.63
2019-02-19T17:25:02.212Z,9.33
2019-02-19T17:27:37.168Z,8.60
2019-02-19T17:30:28.392Z,13.23
2019-02-19T17:33:11.132Z,13.20
2019-02-19T17:35:47.584Z,11.70
2019-02-19T17:38:44.460Z,7.70
2019-02-19T17:41:21.536Z,7.50
2019-02-19T17:44:09.590Z,9.20
2019-02-19T17:46:55.161Z,8.73
2019-02-19T17:49:37.780Z,12.43
2019-02-19T17:52:15.856Z,13.50
2019-02-19T17:54:58.014Z,8.50
2019-02-19T17:57:37.188Z,7.53
2019-02-19T18:00:30.815Z,10.13
2019-02-19T18:03:09.509Z,8.13
2019-02-19T18:05:45.094Z,9.20
2019-02-19T18:08:39.170Z,10.30
2019-02-19T18:11:22.986Z,9.43
2019-02-19T18:14:13.814Z,7.10
2019-02-19T18:17:00.356Z,8.10
2019-02-19T18:19:29.570Z,8.97
2019-02-19T18:21:58.635Z,8.20
2019-02-19T18:24:27.626Z,9.03
2019-02-19T18:26:56.608Z,8.53
2019-02-19T18:29:25.674Z,5.43
2019-02-19T18:31:54.578Z,14.00
2019-02-19T18:34:23.592Z,5.67
2019-02-19T18:36:52.532Z,6.60
2019-02-19T18:39:21.398Z,6.23
2019-02-19T18:41:50.378Z,8.33
2019-02-19T18:44:19.286Z,6.27
2019-02-19T18:46:48.396Z,7.47
2019-02-19T18:49:17.446Z,7.13
2019-02-19T18:51:46.352Z,6.40
2019-02-19T18:54:15.260Z,7.53
2019-02-19T18:56:44.510Z,5.87
2019-02-19T18:59:13.431Z,10.80
2019-02-19T19:01:42.605Z,10.13
2019-02-19T19:04:11.464Z,5.10
2019-02-19T19:06:40.446Z,6.17
2019-02-19T19:09:09.519Z,5.63
2019-02-19T19:11:38.410Z,5.47
2019-02-19T19:14:07.435Z,17.70
2019-02-19T19:16:36.397Z,5.93
2019-02-19T19:19:05.311Z,5.27
2019-02-19T19:21:34.409Z,8.07
2019-02-19T19:24:03.404Z,5.63
2019-02-19T19:26:32.384Z,7.00
2019-02-19T19:29:01.335Z,4.00
2019-02-19T19:31:33.462Z,10.27
2019-02-19T19:34:00.838Z,6.23
2019-02-19T19:36:29.966Z,5.63
2019-02-19T19:38:58.797Z,13.03
2019-02-19T19:41:28.131Z,9.17
2019-02-19T19:43:57.106Z,9.67
2019-02-19T19:46:26.011Z,13.77
2019-02-19T19:48:54.897Z,7.03
2019-02-19T19:51:23.821Z,7.83
2019-02-19T19:53:52.817Z,7.73
2019-02-19T19:56:21.730Z,11.73
2019-02-19T19:58:50.841Z,9.30
2019-02-19T20:01:20.481Z,9.57
2019-02-19T20:03:49.866Z,8.80
2019-02-19T20:06:18.750Z,8.30
2019-02-19T20:08:47.771Z,10.20
2019-02-19T20:11:16.787Z,8.60
2019-02-19T20:13:45.858Z,9.43
2019-02-19T20:16:15.187Z,8.00
2019-02-19T20:18:44.316Z,11.00
2019-02-19T20:21:13.352Z,10.50
2019-02-19T20:23:42.219Z,11.80
2019-02-19T20:26:11.238Z,10.77
2019-02-19T20:28:40.181Z,14.60
2019-02-19T20:31:09.199Z,7.67
2019-02-19T20:33:38.164Z,12.53
2019-02-19T20:36:07.443Z,14.60
2019-02-19T20:38:36.329Z,11.20
2019-02-19T20:41:05.358Z,11.97
2019-02-19T20:43:34.346Z,12.90
2019-02-19T20:46:03.301Z,14.43
2019-02-19T20:48:32.451Z,16.20
2019-02-19T20:51:01.413Z,13.77
2019-02-19T20:53:30.375Z,11.50
2019-02-19T20:55:59.496Z,11.43
2019-02-19T20:58:30.490Z,11.40
2019-02-19T21:00:59.684Z,16.07
2019-02-19T21:03:28.989Z,12.40
2019-02-19T21:05:58.258Z,14.37
2019-02-19T21:08:27.648Z,11.57
2019-02-19T21:10:56.858Z,14.70
2019-02-19T21:13:26.329Z,11.60
2019-02-19T21:15:55.431Z,13.93
2019-02-19T21:18:25.044Z,15.50
2019-02-19T21:20:54.259Z,13.07
2019-02-19T21:23:23.747Z,15.17
2019-02-19T21:25:52.761Z,11.83
2019-02-19T21:28:21.582Z,11.63
2019-02-19T21:30:50.606Z,7.90
2019-02-19T21:33:19.740Z,17.27
2019-02-19T21:35:48.923Z,9.57
2019-02-19T21:38:17.900Z,10.57
2019-02-19T21:40:46.790Z,12.10
2019-02-19T21:43:15.895Z,10.10
2019-02-19T21:45:44.790Z,6.20
2019-02-19T21:48:13.743Z,6.83
2019-02-19T21:50:43.338Z,9.77
2019-02-19T21:53:12.390Z,9.27
2019-02-19T21:55:41.324Z,8.47
2019-02-19T21:58:11.234Z,6.60
2019-02-19T22:00:40.217Z,10.00
2019-02-19T22:05:58.890Z,5.87
2019-02-19T22:08:28.154Z,5.27
2019-02-19T22:11:56.841Z,6.20
2019-02-19T22:14:29.503Z,10.80
2019-02-19T22:20:34.143Z,5.53
2019-02-19T22:23:10.010Z,5.30
2019-02-19T22:25:39.635Z,6.93
2019-02-19T22:28:10.165Z,10.20
2019-02-19T22:30:40.414Z,4.97
2019-02-19T22:33:10.616Z,7.20
2019-02-19T22:35:39.854Z,4.67
2019-02-19T22:38:15.047Z,4.10
2019-02-19T22:40:45.296Z,8.93
2019-02-19T22:43:15.363Z,9.00
2019-02-19T22:45:44.924Z,3.90
2019-02-19T22:48:14.773Z,5.73
2019-02-19T22:50:47.100Z,4.43
2019-02-19T22:53:34.646Z,6.20
2019-02-19T22:56:09.468Z,7.87
2019-02-19T22:58:38.696Z,8.27
2019-02-19T23:01:20.640Z,10.50
2019-02-19T23:03:53.848Z,6.40
2019-02-19T23:06:26.708Z,5.37
2019-02-19T23:08:56.014Z,7.63
2019-02-19T23:11:25.738Z,5.90
2019-02-19T23:13:56.464Z,13.50
2019-02-19T23:16:25.992Z,6.83
2019-02-19T23:18:55.066Z,9.47
2019-02-19T23:21:31.592Z,11.20
2019-02-19T23:24:00.834Z,10.83
2019-02-19T23:26:44.632Z,9.50
2019-02-19T23:29:14.892Z,6.77
2019-02-19T23:31:45.125Z,12.40
2019-02-19T23:34:19.342Z,8.80
2019-02-19T23:36:57.046Z,9.33
2019-02-19T23:39:26.570Z,10.33
2019-02-19T23:41:56.022Z,12.30
2019-02-19T23:44:27.605Z,11.03
2019-02-19T23:46:59.169Z,9.47
2019-02-19T23:49:31.931Z,16.23
2019-02-19T23:52:03.746Z,11.33
2019-02-19T23:54:34.732Z,14.50
2019-02-19T23:57:04.438Z,12.40
2019-02-19T23:59:39.584Z,20.53
